Time;durP1;ratioP1;P1;durP2;ratioP2;P2;SDS_P1;SDS_P2;PMS_P1;PMS_P2;Temp;Humidity;BMP_temperature;BMP_pressure;BME280_temperature;BME280_humidity;BME280_pressure;Samples;Min_cycle;Max_cycle;Signal;HPM_P1;HPM_P2
2021/10/10 00:01:27;;;;;;;15.38;7.30;;;;;;;7.06;74.20;99018.72;4992784;28;20049;-61
2021/10/10 00:03:52;;;;;;;15.60;6.88;;;;;;;6.69;72.55;99014.75;4991719;28;20031;-60
2021/10/10 00:06:18;;;;;;;17.60;7.07;;;;;;;6.68;73.50;99019.94;4994574;28;20592;-60
2021/10/10 00:08:43;;;;;;;16.33;7.20;;;;;;;6.70;72.97;99016.47;4994890;28;20080;-60
2021/10/10 00:11:08;;;;;;;13.75;7.10;;;;;;;6.68;73.93;99014.75;4991933;28;20042;-61
2021/10/10 00:13:34;;;;;;;17.40;7.50;;;;;;;6.54;73.89;99010.56;4991537;28;20034;-61
2021/10/10 00:15:59;;;;;;;12.15;7.00;;;;;;;6.48;74.47;99010.59;4993955;28;20043;-60
2021/10/10 00:18:26;;;;;;;15.10;7.55;;;;;;;6.80;73.95;99011.19;4991898;28;20045;-59
2021/10/10 00:20:51;;;;;;;11.50;6.25;;;;;;;7.04;73.38;99013.56;4990348;28;20069;-60
2021/10/10 00:23:17;;;;;;;14.93;6.97;;;;;;;7.07;74.10;99017.84;4993393;28;20488;-60
2021/10/10 00:25:42;;;;;;;9.52;6.13;;;;;;;7.06;75.89;99018.72;4991408;28;20034;-59
2021/10/10 00:28:07;;;;;;;14.15;7.05;;;;;;;7.02;74.23;99004.94;4995450;28;20104;-61
2021/10/10 00:30:33;;;;;;;13.02;6.90;;;;;;;7.45;77.95;99007.03;4992320;28;20486;-59
2021/10/10 00:32:58;;;;;;;18.23;7.28;;;;;;;7.24;75.33;99012.47;4992820;28;20030;-59
2021/10/10 00:35:23;;;;;;;12.07;6.85;;;;;;;8.29;84.86;99011.94;4992443;28;20041;-60
2021/10/10 00:37:49;;;;;;;19.13;7.35;;;;;;;7.20;73.36;99005.59;4993126;28;20022;-59
2021/10/10 00:40:14;;;;;;;12.80;6.45;;;;;;;7.39;76.58;99001.03;4990659;28;20041;-60
2021/10/10 00:42:40;;;;;;;13.02;6.68;;;;;;;8.03;77.26;99002.78;4993364;28;20034;-59
2021/10/10 00:45:06;;;;;;;15.18;6.65;;;;;;;7.44;74.79;99000.09;4991435;28;20033;-60
2021/10/10 00:47:31;;;;;;;13.15;6.63;;;;;;;7.44;78.07;99001.84;4992475;28;20034;-59
2021/10/10 00:49:56;;;;;;;13.23;6.72;;;;;;;7.18;72.95;99003.00;4992725;28;20400;-58
2021/10/10 00:52:22;;;;;;;11.88;7.03;;;;;;;7.11;73.51;98997.03;4993467;28;20045;-59
2021/10/10 00:54:48;;;;;;;10.15;5.93;;;;;;;7.23;72.68;98998.63;4992071;28;20084;-59
2021/10/10 00:57:15;;;;;;;11.30;6.05;;;;;;;7.17;73.54;99000.41;4989937;28;20507;-60
2021/10/10 00:59:45;;;;;;;11.50;6.35;;;;;;;7.09;76.29;99001.38;4991230;28;20034;-59
2021/10/10 01:02:11;;;;;;;15.52;7.22;;;;;;;7.11;73.37;98994.44;4992934;28;20253;-58
2021/10/10 01:04:38;;;;;;;11.85;7.03;;;;;;;6.91;71.18;98988.59;4994189;28;20033;-59
2021/10/10 01:07:04;;;;;;;13.38;7.05;;;;;;;7.23;73.43;98995.19;4989814;28;20049;-59
2021/10/10 01:09:34;;;;;;;10.50;6.10;;;;;;;7.59;72.86;98993.00;4991777;28;20030;-59
2021/10/10 01:12:00;;;;;;;14.63;6.45;;;;;;;7.24;74.12;98992.56;4989783;28;20045;-58
2021/10/10 01:14:25;;;;;;;13.90;6.13;;;;;;;7.20;72.29;98984.81;4995048;28;20052;-60
2021/10/10 01:16:51;;;;;;;12.55;6.55;;;;;;;7.35;75.03;98984.63;4990612;28;20061;-60
2021/10/10 01:19:16;;;;;;;10.20;5.72;;;;;;;8.04;81.05;98982.84;4991954;28;20026;-59
2021/10/10 01:21:42;;;;;;;14.30;6.75;;;;;;;8.54;77.31;98976.00;4988764;28;20037;-60
2021/10/10 01:24:07;;;;;;;13.98;6.30;;;;;;;7.83;71.63;98981.41;4993762;28;20479;-59
2021/10/10 01:26:33;;;;;;;11.75;6.38;;;;;;;8.16;75.30;98982.69;4991153;28;20034;-60
2021/10/10 01:28:58;;;;;;;11.20;5.90;;;;;;;8.63;83.67;98977.59;4991331;28;20033;-60
2021/10/10 01:31:23;;;;;;;16.85;6.50;;;;;;;7.68;72.02;98975.59;4989338;28;20089;-60
2021/10/10 01:33:49;;;;;;;11.10;6.63;;;;;;;7.61;74.36;98975.66;4988888;28;20130;-60
2021/10/10 01:36:15;;;;;;;10.93;6.65;;;;;;;7.49;71.95;98977.53;4990997;28;20498;-59
2021/10/10 01:38:41;;;;;;;10.77;5.88;;;;;;;8.29;83.48;98971.19;4992297;28;20658;-60
2021/10/10 01:41:11;;;;;;;13.52;6.53;;;;;;;7.09;71.92;98967.63;4992346;28;20042;-59
2021/10/10 01:43:37;;;;;;;14.52;6.53;;;;;;;7.18;74.09;98969.28;4992859;28;20108;-59
2021/10/10 01:46:02;;;;;;;14.00;6.30;;;;;;;8.27;77.14;98967.78;4991475;28;20042;-58
2021/10/10 01:48:29;;;;;;;9.80;5.95;;;;;;;7.53;75.34;98971.44;4991898;28;20030;-61
2021/10/10 01:50:54;;;;;;;9.15;5.57;;;;;;;7.99;78.83;98971.66;4991944;28;20070;-58
2021/10/10 01:53:20;;;;;;;11.20;6.03;;;;;;;7.91;74.41;98972.63;4992254;28;20054;-58
2021/10/10 01:55:45;;;;;;;14.55;6.80;;;;;;;7.88;72.79;98971.81;4991024;28;20045;-60
2021/10/10 01:58:12;;;;;;;12.65;6.25;;;;;;;7.38;68.52;98963.84;4989858;28;20400;-59
2021/10/10 02:00:38;;;;;;;10.27;6.10;;;;;;;7.85;76.70;98969.28;4990557;28;20038;-58
2021/10/10 02:03:03;;;;;;;11.13;6.28;;;;;;;7.77;75.91;98961.59;4989164;28;20112;-59
2021/10/10 02:05:29;;;;;;;12.70;7.22;;;;;;;7.79;71.22;98964.16;4989831;28;20124;-60
2021/10/10 02:07:55;;;;;;;11.38;6.50;;;;;;;6.85;71.33;98957.53;4991258;28;20510;-60
2021/10/10 02:10:21;;;;;;;12.52;6.75;;;;;;;7.57;72.41;98955.81;4989773;28;20033;-58
2021/10/10 02:12:46;;;;;;;12.30;6.10;;;;;;;7.06;71.02;98956.47;4991803;28;20026;-60
2021/10/10 02:15:11;;;;;;;10.32;6.00;;;;;;;7.07;72.94;98958.16;4988324;28;20030;-58
2021/10/10 02:17:37;;;;;;;10.20;5.88;;;;;;;7.49;79.12;98958.53;4990130;28;20141;-59
2021/10/10 02:20:07;;;;;;;10.73;6.25;;;;;;;7.12;74.61;98952.03;4993309;28;20026;-60
2021/10/10 02:22:32;;;;;;;11.18;5.95;;;;;;;7.44;72.75;98953.38;4991021;28;20034;-59
2021/10/10 02:24:57;;;;;;;13.57;6.60;;;;;;;7.30;75.66;98944.94;4990770;28;20056;-58
2021/10/10 02:27:23;;;;;;;12.43;6.35;;;;;;;7.39;73.81;98947.41;4989137;28;20060;-59
2021/10/10 02:29:48;;;;;;;10.85;5.63;;;;;;;8.09;81.29;98947.28;4990106;28;20495;-59
2021/10/10 02:32:14;;;;;;;10.40;5.95;;;;;;;7.25;71.19;98946.72;4989401;28;20066;-58
2021/10/10 02:34:39;;;;;;;13.63;6.70;;;;;;;6.82;72.01;98942.00;4989351;28;20033;-58
2021/10/10 02:37:05;;;;;;;12.18;6.60;;;;;;;6.91;71.13;98947.97;4991146;28;20049;-58
2021/10/10 02:39:31;;;;;;;12.98;6.50;;;;;;;6.30;73.50;98944.22;4991037;28;20062;-57
2021/10/10 02:41:56;;;;;;;14.23;6.47;;;;;;;6.83;73.54;98944.59;4986253;28;20046;-59
2021/10/10 02:44:21;;;;;;;14.38;6.22;;;;;;;6.87;73.95;98948.00;4994118;28;20026;-59
2021/10/10 02:46:47;;;;;;;10.02;5.93;;;;;;;6.68;74.71;98935.25;4994519;28;20746;-58
2021/10/10 02:49:12;;;;;;;12.45;6.22;;;;;;;7.20;75.59;98943.31;4995268;28;20445;-60
2021/10/10 02:51:37;;;;;;;13.52;6.90;;;;;;;6.41;72.05;98940.69;4993276;28;20164;-58
2021/10/10 02:54:02;;;;;;;11.98;6.10;;;;;;;6.85;72.65;98947.16;4995047;28;20022;-58
2021/10/10 02:56:28;;;;;;;11.15;6.03;;;;;;;6.52;73.28;98938.84;4993309;28;20049;-59
2021/10/10 02:58:53;;;;;;;13.35;6.38;;;;;;;6.63;71.16;98931.84;4993749;28;20033;-59
2021/10/10 03:01:18;;;;;;;13.38;6.60;;;;;;;6.51;73.32;98937.16;4993829;28;20125;-57
2021/10/10 03:03:44;;;;;;;14.55;7.05;;;;;;;6.45;73.84;98937.19;4995368;28;20050;-58
2021/10/10 03:06:10;;;;;;;12.77;6.75;;;;;;;6.47;72.01;98932.84;4996633;28;20069;-58
2021/10/10 03:08:36;;;;;;;14.20;6.78;;;;;;;6.30;72.58;98935.59;4994833;28;20076;-59
2021/10/10 03:11:02;;;;;;;13.20;6.97;;;;;;;6.29;75.30;98937.34;4992225;28;20042;-58
2021/10/10 03:13:28;;;;;;;11.02;6.50;;;;;;;6.12;73.49;98934.91;4995024;28;20072;-62
2021/10/10 03:15:54;;;;;;;13.70;6.72;;;;;;;5.97;72.79;98935.88;4992742;28;20405;-61
2021/10/10 03:18:20;;;;;;;15.65;7.03;;;;;;;5.97;74.31;98933.28;4993381;28;20030;-61
2021/10/10 03:20:45;;;;;;;14.68;6.75;;;;;;;5.62;72.89;98932.63;4997599;28;20786;-59
2021/10/10 03:23:10;;;;;;;12.60;6.63;;;;;;;6.07;74.07;98933.22;4993817;28;20061;-58
2021/10/10 03:25:35;;;;;;;13.18;7.03;;;;;;;5.72;73.74;98932.56;4993476;28;20471;-58
2021/10/10 03:28:01;;;;;;;15.50;6.60;;;;;;;5.55;74.61;98927.50;4996012;28;20048;-58
2021/10/10 03:30:26;;;;;;;13.15;7.03;;;;;;;5.82;74.30;98929.91;4993583;28;20172;-58
2021/10/10 03:32:51;;;;;;;11.77;6.95;;;;;;;5.95;73.97;98921.19;4994476;28;20017;-58
2021/10/10 03:35:17;;;;;;;15.52;5.90;;;;;;;5.82;74.98;98924.72;4991469;28;20034;-58
2021/10/10 03:37:42;;;;;;;12.48;6.78;;;;;;;5.90;77.96;98934.16;4994655;28;20136;-58
2021/10/10 03:40:10;;;;;;;15.30;7.50;;;;;;;5.58;74.87;98927.47;4990822;28;20042;-60
2021/10/10 03:42:36;;;;;;;12.45;6.22;;;;;;;5.55;75.64;98927.50;4994940;28;20037;-58
2021/10/10 03:45:03;;;;;;;14.13;7.10;;;;;;;5.66;74.86;98923.97;4995079;28;20142;-59
2021/10/10 03:47:28;;;;;;;13.65;7.25;;;;;;;5.44;74.88;98929.28;4994845;28;20085;-59
2021/10/10 03:49:53;;;;;;;11.65;6.28;;;;;;;6.04;77.63;98925.47;4992226;28;20046;-57
2021/10/10 03:52:19;;;;;;;12.40;6.15;;;;;;;6.46;80.27;98933.75;4994627;28;20045;-59
2021/10/10 03:57:21;;;;;;;13.17;7.03;;;;;;;5.67;74.66;98926.56;4990121;28;20068;-58
2021/10/10 03:59:49;;;;;;;10.93;6.15;;;;;;;5.75;76.22;98929.09;4993022;28;20347;-57
2021/10/10 04:02:14;;;;;;;14.50;7.13;;;;;;;5.08;75.37;98935.50;4992234;28;20042;-59
2021/10/10 04:04:40;;;;;;;17.63;7.28;;;;;;;5.98;75.03;98927.22;4993401;28;20023;-60
2021/10/10 04:07:05;;;;;;;12.07;7.20;;;;;;;5.99;76.97;98935.84;4992834;28;20042;-59
2021/10/10 04:09:30;;;;;;;9.68;5.88;;;;;;;5.89;76.56;98927.25;4991138;28;20042;-57
2021/10/10 04:11:56;;;;;;;14.55;7.15;;;;;;;5.10;74.91;98926.84;4993333;28;20129;-58
2021/10/10 04:14:21;;;;;;;12.90;6.65;;;;;;;5.72;78.01;98923.94;4992182;28;20018;-58
2021/10/10 04:16:46;;;;;;;19.52;7.78;;;;;;;5.30;74.72;98929.34;4995112;28;20038;-59
2021/10/10 04:19:12;;;;;;;12.73;6.90;;;;;;;5.41;76.01;98927.56;4991355;28;20034;-58
2021/10/10 04:21:37;;;;;;;12.77;7.28;;;;;;;5.56;73.97;98923.16;4991955;28;20068;-60
2021/10/10 04:24:03;;;;;;;12.95;6.10;;;;;;;5.62;78.67;98923.13;4994526;28;20030;-59
2021/10/10 04:26:28;;;;;;;10.05;6.30;;;;;;;5.69;75.52;98924.81;4990931;28;20052;-60
2021/10/10 04:28:53;;;;;;;12.43;7.05;;;;;;;5.16;76.45;98920.78;4992899;28;20128;-59
2021/10/10 04:31:19;;;;;;;14.75;7.60;;;;;;;5.03;76.64;98920.81;4992323;28;20038;-59
2021/10/10 04:33:44;;;;;;;15.73;7.53;;;;;;;5.72;78.93;98918.78;4991732;28;20026;-59
2021/10/10 04:36:09;;;;;;;13.70;7.50;;;;;;;5.67;78.13;98925.69;4988506;28;20026;-58
2021/10/10 04:38:35;;;;;;;14.77;7.32;;;;;;;5.82;79.43;98924.72;4990819;28;20030;-59
2021/10/10 04:41:00;;;;;;;10.32;6.00;;;;;;;6.09;78.67;98918.53;4991624;28;20669;-59
2021/10/10 04:43:26;;;;;;;9.40;5.57;;;;;;;5.60;80.70;98920.53;4994993;28;20136;-59
2021/10/10 04:45:51;;;;;;;16.10;6.90;;;;;;;5.45;75.98;98922.38;4991243;28;20058;-60
2021/10/10 04:48:16;;;;;;;13.15;6.50;;;;;;;5.58;77.66;98927.47;4991018;28;20026;-60
2021/10/10 04:50:42;;;;;;;12.43;6.47;;;;;;;6.14;80.77;98920.19;4991479;28;20058;-59
2021/10/10 04:53:07;;;;;;;14.82;6.72;;;;;;;6.81;79.88;98924.75;4991821;28;20054;-58
2021/10/10 04:55:32;;;;;;;13.77;7.55;;;;;;;6.13;77.80;98915.03;4990620;28;20161;-59
2021/10/10 04:57:58;;;;;;;12.10;6.88;;;;;;;5.86;76.46;98924.69;4993905;28;20041;-59
2021/10/10 05:00:23;;;;;;;12.90;6.32;;;;;;;5.97;77.80;98915.16;4991865;28;20056;-60
2021/10/10 05:02:48;;;;;;;15.15;7.22;;;;;;;6.11;76.61;98916.78;4993090;28;20364;-59
2021/10/10 05:05:14;;;;;;;15.02;6.95;;;;;;;5.33;77.16;98918.13;4990631;28;20030;-61
2021/10/10 05:07:39;;;;;;;12.23;7.47;;;;;;;4.52;77.82;98924.44;4989406;28;20064;-58
2021/10/10 05:10:05;;;;;;;17.55;7.78;;;;;;;4.77;77.62;98923.50;4993847;28;20057;-59
2021/10/10 05:12:30;;;;;;;16.83;8.15;;;;;;;4.80;77.50;98920.94;4990146;28;20038;-59
2021/10/10 05:14:55;;;;;;;17.25;8.07;;;;;;;4.86;76.13;98916.59;4991960;28;20035;-60
2021/10/10 05:17:21;;;;;;;12.77;6.82;;;;;;;5.16;78.62;98918.19;4992113;28;20038;-59
2021/10/10 05:19:46;;;;;;;12.82;6.88;;;;;;;4.79;77.38;98919.19;4991627;28;20064;-59
2021/10/10 05:22:11;;;;;;;12.80;7.30;;;;;;;4.72;78.06;98917.50;4991265;28;20607;-58
2021/10/10 05:24:36;;;;;;;13.75;8.05;;;;;;;4.77;77.81;98918.34;4989680;28;20547;-59
2021/10/10 05:27:02;;;;;;;13.98;8.13;;;;;;;4.55;78.30;98925.28;4990392;28;20096;-59
2021/10/10 05:29:28;;;;;;;15.15;7.88;;;;;;;4.67;78.97;98921.84;4992728;28;20054;-59
2021/10/10 05:31:53;;;;;;;14.57;7.55;;;;;;;4.46;78.28;98916.69;4992385;28;20730;-59
2021/10/10 05:34:18;;;;;;;18.90;8.40;;;;;;;4.23;78.94;98918.44;4991885;28;20543;-59
2021/10/10 05:36:44;;;;;;;13.50;7.30;;;;;;;4.69;79.68;98911.47;4989636;28;20034;-59
2021/10/10 05:39:09;;;;;;;19.52;7.95;;;;;;;4.43;79.15;98912.41;4990993;28;20033;-58
2021/10/10 05:41:34;;;;;;;16.33;8.40;;;;;;;4.30;78.81;98921.00;4990166;28;20030;-57
2021/10/10 05:44:01;;;;;;;15.40;7.80;;;;;;;3.83;79.48;98918.44;4992022;28;20487;-60
2021/10/10 05:46:27;;;;;;;17.88;8.32;;;;;;;3.91;80.33;98928.75;4990750;28;20452;-63
2021/10/10 05:48:52;;;;;;;16.20;8.73;;;;;;;3.89;80.10;98921.91;4989480;28;20510;-60
2021/10/10 05:51:18;;;;;;;17.15;8.02;;;;;;;4.26;79.08;98925.31;4990954;28;20373;-58
2021/10/10 05:53:43;;;;;;;16.55;8.43;;;;;;;4.81;80.83;98925.22;4990301;28;20029;-58
2021/10/10 05:56:09;;;;;;;14.18;7.13;;;;;;;6.07;91.81;98920.28;4990705;28;20053;-59
2021/10/10 05:58:40;;;;;;;14.32;8.15;;;;;;;5.27;79.98;98921.59;4991371;28;20026;-59
2021/10/10 06:01:06;;;;;;;15.83;8.07;;;;;;;5.36;78.30;98931.03;4990829;28;20064;-61
2021/10/10 06:03:31;;;;;;;14.98;7.88;;;;;;;6.11;86.44;98927.13;4990792;28;20687;-59
2021/10/10 06:05:56;;;;;;;13.98;7.88;;;;;;;5.93;80.77;98931.53;4990662;28;20188;-59
2021/10/10 06:08:22;;;;;;;13.43;7.95;;;;;;;5.61;78.12;98942.13;4989296;28;20087;-59
2021/10/10 06:10:47;;;;;;;13.23;6.32;;;;;;;7.75;93.55;98937.38;4990671;28;20117;-59
2021/10/10 06:13:13;;;;;;;17.52;7.97;;;;;;;6.07;79.49;98925.44;4990136;28;20181;-59
2021/10/10 06:15:39;;;;;;;12.82;7.30;;;;;;;6.34;78.22;98934.69;4991033;28;20073;-60
2021/10/10 06:18:07;;;;;;;16.08;8.25;;;;;;;6.51;74.30;98942.34;4990929;28;20026;-59
2021/10/10 06:20:32;;;;;;;16.45;8.82;;;;;;;7.95;77.01;98944.03;4990513;28;20048;-59
2021/10/10 06:22:57;;;;;;;20.63;8.15;;;;;;;8.98;66.78;98940.53;4993688;28;20042;-60
2021/10/10 06:25:23;;;;;;;14.75;7.38;;;;;;;11.33;67.46;98941.84;4990197;28;20030;-58
2021/10/10 06:27:48;;;;;;;14.00;7.85;;;;;;;11.25;61.43;98942.94;4988370;28;20030;-59
2021/10/10 06:30:13;;;;;;;12.02;7.20;;;;;;;10.85;57.80;98949.31;4989425;28;20033;-59
2021/10/10 06:32:39;;;;;;;12.75;7.15;;;;;;;10.13;59.73;98944.97;4990877;28;20032;-59
2021/10/10 06:35:07;;;;;;;14.68;7.40;;;;;;;11.05;60.80;98946.16;4990369;28;20034;-60
2021/10/10 06:37:33;;;;;;;16.48;7.60;;;;;;;10.32;58.38;98942.81;4990533;28;20033;-61
2021/10/10 06:39:59;;;;;;;13.57;7.22;;;;;;;9.99;59.45;98944.44;4989927;28;20037;-60
2021/10/10 06:42:25;;;;;;;17.70;7.70;;;;;;;8.83;64.28;98938.22;4988899;28;20461;-59
2021/10/10 06:44:50;;;;;;;17.45;7.57;;;;;;;9.35;62.32;98950.19;4994435;28;20032;-61
2021/10/10 06:47:15;;;;;;;15.85;7.20;;;;;;;10.13;59.10;98934.56;4990523;28;20041;-61
2021/10/10 06:49:42;;;;;;;14.48;7.45;;;;;;;9.60;58.75;98949.69;4990307;28;20143;-58
2021/10/10 06:52:07;;;;;;;13.75;7.53;;;;;;;10.82;56.75;98945.00;4992372;28;20068;-60
2021/10/10 06:54:32;;;;;;;16.48;7.15;;;;;;;10.71;56.07;98947.88;4989911;28;20053;-60
2021/10/10 06:56:58;;;;;;;14.98;8.10;;;;;;;10.08;56.21;98956.41;4991676;28;20038;-60
2021/10/10 06:59:23;;;;;;;12.68;7.40;;;;;;;10.25;56.78;98950.78;4990309;28;20022;-60
2021/10/10 07:01:48;;;;;;;15.95;7.57;;;;;;;10.25;57.85;98958.63;4992565;28;20103;-60
2021/10/10 07:04:14;;;;;;;14.85;8.88;;;;;;;9.39;57.87;98964.88;4988909;28;20105;-59
2021/10/10 07:06:39;;;;;;;16.70;7.70;;;;;;;9.07;58.07;98955.94;4991781;28;20073;-60
2021/10/10 07:09:04;;;;;;;16.67;8.18;;;;;;;9.25;58.40;98959.09;4993034;28;20030;-58
2021/10/10 07:11:30;;;;;;;14.00;7.57;;;;;;;10.66;55.57;98961.97;4986260;28;20057;-60
2021/10/10 07:13:55;;;;;;;12.93;7.95;;;;;;;11.50;54.94;98958.78;4988880;28;20095;-60
2021/10/10 07:16:26;;;;;;;14.68;7.63;;;;;;;12.42;51.07;98965.53;4990911;28;20081;-58
2021/10/10 07:18:53;;;;;;;13.77;6.53;;;;;;;15.35;46.01;98961.16;4989662;28;20038;-59
2021/10/10 07:26:25;;;;;;;11.90;7.22;;;;;;;16.04;41.21;98959.75;4989324;28;20043;-59
2021/10/10 07:28:53;;;;;;;11.98;7.15;;;;;;;18.60;37.59;98957.66;4994317;28;20021;-59
2021/10/10 07:31:19;;;;;;;13.40;7.15;;;;;;;18.06;37.21;98957.25;4993984;28;20407;-59
2021/10/10 07:33:44;;;;;;;13.38;7.03;;;;;;;17.07;39.78;98964.31;4996741;28;20088;-61
2021/10/10 07:36:11;;;;;;;15.07;7.75;;;;;;;17.09;38.42;98965.97;4995053;28;20046;-61
2021/10/10 07:38:36;;;;;;;14.02;7.55;;;;;;;17.44;37.88;98959.72;4991303;28;20121;-59
2021/10/10 07:41:03;;;;;;;16.05;7.32;;;;;;;18.04;36.73;98959.13;4995357;28;20113;-60
2021/10/10 07:43:31;;;;;;;11.88;7.13;;;;;;;16.09;40.26;98965.66;4994694;28;20054;-61
2021/10/10 07:46:06;;;;;;;14.82;7.32;;;;;;;19.40;34.76;98955.50;4991994;28;20046;-60
2021/10/10 07:48:31;;;;;;;15.05;7.30;;;;;;;20.00;34.79;98956.22;4994326;28;20088;-61
2021/10/10 07:50:57;;;;;;;14.52;7.38;;;;;;;18.07;37.82;98958.97;4995576;28;20046;-61
2021/10/10 07:53:22;;;;;;;10.32;7.25;;;;;;;19.12;34.26;98960.81;4995915;28;20027;-60
2021/10/10 07:55:47;;;;;;;11.57;7.05;;;;;;;20.77;33.28;98967.06;4994889;28;20519;-59
2021/10/10 07:58:13;;;;;;;12.10;7.88;;;;;;;19.09;34.81;98964.47;4995564;28;20026;-61
2021/10/10 08:00:38;;;;;;;15.57;7.45;;;;;;;20.28;32.92;98959.69;4992806;28;20125;-59
2021/10/10 08:03:04;;;;;;;13.30;7.53;;;;;;;18.81;33.68;98963.47;4993111;28;20026;-60
2021/10/10 08:05:36;;;;;;;15.15;7.70;;;;;;;23.15;29.62;98957.00;4993904;28;20057;-62
2021/10/10 08:08:02;;;;;;;15.75;7.63;;;;;;;20.51;32.88;98961.69;4993284;28;20047;-62
2021/10/10 08:10:27;;;;;;;12.85;7.63;;;;;;;20.56;32.28;98964.84;4993957;28;20427;-61
2021/10/10 08:12:52;;;;;;;13.88;7.75;;;;;;;20.04;32.42;98957.69;4993956;28;20060;-61
2021/10/10 08:15:18;;;;;;;9.90;7.20;;;;;;;20.97;31.47;98953.31;4994510;28;20048;-62
2021/10/10 08:17:44;;;;;;;14.52;7.35;;;;;;;20.51;31.75;98956.38;4994084;28;20034;-62
2021/10/10 08:20:10;;;;;;;12.60;7.60;;;;;;;18.31;35.61;98946.16;4995705;28;20030;-62
2021/10/10 08:22:37;;;;;;;11.10;7.57;;;;;;;20.33;32.37;98949.66;4994007;28;20088;-62
2021/10/10 08:25:11;;;;;;;17.52;7.13;;;;;;;21.65;30.49;98947.72;4992608;28;20565;-63
2021/10/10 08:27:36;;;;;;;12.70;7.43;;;;;;;20.23;31.85;98950.25;4991323;28;20060;-62
2021/10/10 08:30:09;;;;;;;14.10;7.68;;;;;;;20.22;31.80;98948.56;4992667;28;20053;-61
2021/10/10 08:32:36;;;;;;;12.75;7.43;;;;;;;20.45;32.22;98940.03;4992306;28;20130;-61
2021/10/10 08:35:02;;;;;;;16.38;7.78;;;;;;;18.85;33.82;98948.28;4993042;28;20026;-60
2021/10/10 08:37:27;;;;;;;13.23;7.90;;;;;;;17.66;36.17;98948.88;4991097;28;20073;-58
2021/10/10 08:39:53;;;;;;;18.05;7.55;;;;;;;17.48;36.31;98946.31;4991783;28;20069;-61
2021/10/10 08:42:27;;;;;;;12.52;7.20;;;;;;;19.35;33.94;98940.88;4991592;28;20042;-62
2021/10/10 08:45:00;;;;;;;16.48;7.70;;;;;;;19.48;33.42;98939.13;4992599;28;20056;-61
2021/10/10 08:47:30;;;;;;;19.13;7.47;;;;;;;17.09;36.84;98938.72;4994006;28;20034;-61
2021/10/10 08:49:56;;;;;;;13.75;7.53;;;;;;;17.90;36.03;98931.72;4995413;28;20022;-62
2021/10/10 08:52:23;;;;;;;16.60;7.25;;;;;;;19.07;33.52;98939.91;4991780;28;20119;-60
2021/10/10 08:54:49;;;;;;;12.18;7.20;;;;;;;20.56;31.71;98927.75;4990623;28;20597;-61
2021/10/10 08:57:15;;;;;;;17.08;6.95;;;;;;;21.19;32.77;98930.56;4991410;28;20140;-61
2021/10/10 08:59:43;;;;;;;12.30;7.43;;;;;;;21.20;31.64;98932.28;4991767;28;20470;-60
2021/10/10 09:02:24;;;;;;;13.82;7.53;;;;;;;18.67;34.03;98932.56;4991780;28;20499;-61
2021/10/10 09:04:50;;;;;;;10.87;7.07;;;;;;;18.71;33.88;98932.38;4993018;28;20034;-60
2021/10/10 09:07:15;;;;;;;12.90;7.30;;;;;;;19.29;32.92;98933.31;4993098;28;20037;-63
2021/10/10 09:09:41;;;;;;;14.23;7.50;;;;;;;21.09;30.55;98919.75;4992667;28;20389;-60
2021/10/10 09:12:10;;;;;;;11.00;6.40;;;;;;;23.12;28.93;98930.63;4991648;28;20042;-60
2021/10/10 09:14:47;;;;;;;11.95;7.38;;;;;;;23.35;28.26;98917.34;4990918;28;20072;-60
2021/10/10 09:17:16;;;;;;;12.20;7.10;;;;;;;20.04;32.80;98925.94;4990811;28;20760;-60
2021/10/10 09:19:52;;;;;;;12.77;7.28;;;;;;;21.37;31.52;98923.97;4991979;28;20049;-63
2021/10/10 09:22:20;;;;;;;12.25;6.82;;;;;;;24.07;27.58;98921.34;4990608;28;20038;-60
2021/10/10 09:24:46;;;;;;;16.33;7.32;;;;;;;20.95;30.77;98911.91;4992207;28;20037;-62
2021/10/10 09:27:14;;;;;;;14.73;6.97;;;;;;;22.49;29.09;98920.31;4990907;28;20041;-60
2021/10/10 09:29:43;;;;;;;13.35;7.05;;;;;;;21.42;29.98;98920.16;4988982;28;20127;-61
2021/10/10 09:32:13;;;;;;;13.25;7.53;;;;;;;20.11;31.29;98926.38;4990163;28;20042;-59
2021/10/10 09:34:40;;;;;;;13.30;7.63;;;;;;;18.32;33.77;98925.84;4990854;28;20026;-62
2021/10/10 09:37:21;;;;;;;16.83;6.88;;;;;;;20.07;32.67;98925.72;4992636;28;20025;-61
2021/10/10 09:40:03;;;;;;;11.50;7.03;;;;;;;21.33;29.62;98922.50;4994415;28;20018;-62
2021/10/10 09:42:37;;;;;;;;;;;;;;;23.22;27.78;98910.31;4991687;28;20499;-62
2021/10/10 09:45:29;;;;;;;15.07;7.85;;;;;;;19.66;32.16;98923.91;4991991;28;19917;-60
2021/10/10 09:47:58;;;;;;;12.98;7.25;;;;;;;19.80;33.85;98923.91;4992482;28;20041;-61
2021/10/10 09:50:26;;;;;;;13.75;6.93;;;;;;;22.66;28.89;98918.19;4989705;28;20439;-61
2021/10/10 09:53:03;;;;;;;12.00;7.43;;;;;;;20.93;30.93;98913.81;4992030;28;20022;-60
2021/10/10 09:55:30;;;;;;;15.38;6.85;;;;;;;22.01;31.86;98912.34;4992587;28;20042;-63
2021/10/10 09:57:56;;;;;;;12.73;6.32;;;;;;;20.82;37.07;98911.06;4990673;28;20030;-63
2021/10/10 10:00:24;;;;;;;14.27;6.88;;;;;;;20.40;31.28;98916.47;4989466;28;20029;-63
2021/10/10 10:02:51;;;;;;;12.77;6.75;;;;;;;20.63;31.92;98911.47;4989314;28;20026;-62
2021/10/10 10:05:24;;;;;;;11.60;6.85;;;;;;;20.42;35.62;98917.25;4990537;28;20583;-60
2021/10/10 10:07:52;;;;;;;12.50;6.93;;;;;;;20.10;31.59;98909.63;4988680;28;20117;-60
2021/10/10 10:10:17;;;;;;;13.80;7.18;;;;;;;19.88;32.18;98914.63;4990900;28;20026;-62
2021/10/10 10:12:44;;;;;;;12.30;7.63;;;;;;;18.82;32.94;98908.81;4991478;28;20041;-60
2021/10/10 10:15:10;;;;;;;14.70;7.50;;;;;;;17.71;35.08;98908.09;4990367;28;20027;-61
2021/10/10 10:17:36;;;;;;;10.25;7.18;;;;;;;20.69;31.23;98913.72;4988920;28;20557;-61
2021/10/10 10:20:04;;;;;;;15.32;6.82;;;;;;;20.09;33.25;98907.94;4991763;28;20117;-61
2021/10/10 10:22:36;;;;;;;18.92;7.43;;;;;;;20.01;33.40;98911.06;4990252;28;20523;-60
2021/10/10 10:25:07;;;;;;;12.32;7.43;;;;;;;21.97;29.66;98910.88;4991606;28;20126;-59
2021/10/10 10:27:32;;;;;;;15.82;7.18;;;;;;;19.54;33.47;98914.13;4990800;28;20028;-59
2021/10/10 10:29:58;;;;;;;13.75;7.20;;;;;;;21.51;32.29;98908.91;4992264;28;20116;-62
2021/10/10 10:32:24;;;;;;;11.48;7.43;;;;;;;21.51;30.56;98909.75;4991305;28;20052;-61
2021/10/10 10:34:57;;;;;;;13.98;7.18;;;;;;;20.33;32.49;98904.63;4991091;28;20069;-60
2021/10/10 10:37:42;;;;;;;15.95;7.35;;;;;;;19.44;33.12;98901.44;4989286;28;20665;-61
2021/10/10 10:40:14;;;;;;;13.55;7.30;;;;;;;18.19;35.07;98900.16;4989062;28;20053;-61
2021/10/10 10:42:41;;;;;;;12.10;7.85;;;;;;;17.47;37.15;98910.31;4990276;28;20543;-62
2021/10/10 10:45:20;;;;;;;11.93;7.22;;;;;;;20.96;33.22;98903.00;4990167;28;20487;-61
2021/10/10 10:47:47;;;;;;;12.00;7.53;;;;;;;19.01;33.69;98904.13;4990203;28;20030;-62
2021/10/10 10:50:14;;;;;;;11.63;6.97;;;;;;;19.42;34.13;98897.19;4989032;28;20484;-63
2021/10/10 10:52:43;;;;;;;11.82;6.80;;;;;;;18.44;36.31;98898.72;4994683;28;20026;-60
2021/10/10 10:55:20;;;;;;;13.23;7.00;;;;;;;19.39;34.88;98892.97;4989600;28;20092;-60
2021/10/10 10:57:54;;;;;;;11.35;6.65;;;;;;;19.48;34.08;98894.16;4992300;28;20026;-60
2021/10/10 11:00:26;;;;;;;11.75;6.82;;;;;;;19.06;34.78;98895.94;4990591;28;20780;-64
2021/10/10 11:02:57;;;;;;;;;;;;;;;17.84;38.12;98889.78;4990499;28;20519;-64
2021/10/10 11:05:46;;;;;;;13.85;6.30;;;;;;;19.56;39.10;98893.69;4992271;28;19921;-61
2021/10/10 11:08:17;;;;;;;9.55;6.20;;;;;;;19.58;35.41;98897.09;4994038;28;20488;-62
2021/10/10 11:11:04;;;;;;;15.47;6.83;;;;;;;18.76;35.86;98886.22;4991943;28;20125;-61
2021/10/10 11:13:38;;;;;;;13.93;6.88;;;;;;;18.50;38.79;98883.34;4993566;28;20258;-61
2021/10/10 11:16:05;;;;;;;15.50;7.78;;;;;;;18.63;35.42;98887.91;4994906;28;20467;-61
2021/10/10 11:18:31;;;;;;;12.55;6.90;;;;;;;18.30;35.40;98876.59;4993952;28;20120;-61
2021/10/10 11:21:02;;;;;;;14.38;7.50;;;;;;;19.17;34.93;98877.59;4996577;28;20161;-63
2021/10/10 11:23:28;;;;;;;11.43;7.00;;;;;;;18.75;36.40;98875.75;4991635;28;20030;-61
2021/10/10 11:25:56;;;;;;;15.27;7.18;;;;;;;17.77;37.18;98867.31;4996703;28;20115;-61
2021/10/10 11:28:49;;;;;;;11.90;6.82;;;;;;;17.85;37.61;98865.13;4993177;28;20030;-62
2021/10/10 11:31:32;;;;;;;14.05;7.07;;;;;;;17.08;39.44;98864.09;4993957;28;20038;-62
2021/10/10 11:34:00;;;;;;;13.57;6.38;;;;;;;16.75;41.15;98862.28;4993169;28;20646;-61
2021/10/10 11:36:32;;;;;;;12.95;6.45;;;;;;;16.57;43.24;98855.34;4993608;28;20038;-61
2021/10/10 11:38:57;;;;;;;11.73;6.50;;;;;;;16.49;43.27;98860.16;4994746;28;20037;-61